Time;durP1;ratioP1;P1;durP2;ratioP2;P2;SDS_P1;SDS_P2;PMS_P1;PMS_P2;Temp;Humidity;BMP_temperature;BMP_pressure;BME280_temperature;BME280_humidity;BME280_pressure;Samples;Min_cycle;Max_cycle;Signal;HPM_P1;HPM_P2
2023/06/15 00:00:47;;;;;;;11.52;9.02;;;;;;;18.54;85.59;95083.00;5014099;28;20087;-80
2023/06/15 00:03:12;;;;;;;11.02;8.85;;;;;;;18.12;85.02;95015.78;5013423;28;20033;-80
2023/06/15 00:05:38;;;;;;;13.25;9.38;;;;;;;18.31;85.13;95037.63;5031618;28;20040;-80
2023/06/15 00:08:04;;;;;;;16.73;9.57;;;;;;;18.21;84.98;95021.13;5031519;28;20045;-80
2023/06/15 00:10:29;;;;;;;11.68;8.68;;;;;;;17.96;85.32;94983.38;5020109;28;20025;-80
2023/06/15 00:12:55;;;;;;;13.95;10.23;;;;;;;18.59;85.16;95083.59;5032032;28;20488;-80
2023/06/15 00:15:21;;;;;;;14.48;9.38;;;;;;;18.73;85.42;95102.94;5031113;28;20052;-80
2023/06/15 00:17:47;;;;;;;11.60;8.88;;;;;;;18.75;85.65;95098.03;5016430;28;20462;-80
2023/06/15 00:20:13;;;;;;;14.23;9.23;;;;;;;18.68;85.27;95083.56;5050716;28;20592;-80
2023/06/15 00:22:41;;;;;;;11.73;9.32;;;;;;;18.64;84.79;95091.47;5051368;28;20071;-80
2023/06/15 00:25:07;;;;;;;11.85;8.73;;;;;;;18.34;84.57;95036.97;5033420;28;20086;-80
2023/06/15 00:27:34;;;;;;;14.88;9.82;;;;;;;18.65;84.62;95082.31;5051012;28;20037;-80
2023/06/15 00:30:00;;;;;;;14.05;10.50;;;;;;;18.75;84.75;95094.56;5033142;28;20491;-80
2023/06/15 00:32:25;;;;;;;12.38;10.23;;;;;;;18.67;85.05;95080.09;5033152;28;20054;-80
2023/06/15 00:34:50;;;;;;;13.93;10.68;;;;;;;18.78;84.65;95096.59;5031327;28;20040;-80
2023/06/15 00:37:16;;;;;;;12.65;10.20;;;;;;;18.62;84.44;95068.72;5021294;28;20123;-80
2023/06/15 00:39:41;;;;;;;14.77;10.52;;;;;;;18.55;84.13;95065.75;4996714;28;20030;-80
2023/06/15 00:42:07;;;;;;;14.52;11.10;;;;;;;18.73;84.14;95078.78;5031070;28;20034;-80
2023/06/15 00:44:33;;;;;;;14.27;10.95;;;;;;;18.62;84.12;95063.34;5012915;28;20499;-80
2023/06/15 00:46:59;;;;;;;13.35;10.75;;;;;;;18.57;83.44;95058.19;5013028;28;20124;-80
2023/06/15 00:49:26;;;;;;;17.08;10.18;;;;;;;18.59;84.16;95061.34;5013445;28;20038;-80
2023/06/15 00:51:52;;;;;;;15.75;11.63;;;;;;;18.54;84.31;95058.81;5013391;28;20065;-80
2023/06/15 00:54:21;;;;;;;12.18;10.38;;;;;;;18.30;83.96;95014.59;5013058;28;20120;-80
2023/06/15 00:56:47;;;;;;;15.30;11.68;;;;;;;18.56;83.84;95048.53;5030929;28;20488;-80
2023/06/15 00:59:13;;;;;;;14.52;11.30;;;;;;;18.26;83.96;95010.97;5039122;28;20033;-80
2023/06/15 01:01:41;;;;;;;17.92;11.90;;;;;;;18.56;84.20;95056.56;5031015;28;20036;-80
2023/06/15 01:04:07;;;;;;;26.08;12.82;;;;;;;18.58;84.52;95055.19;5012728;28;20037;-80
2023/06/15 01:06:41;;;;;;;14.27;10.68;;;;;;;18.34;84.16;95033.50;5046820;28;20420;-80
2023/06/15 01:09:09;;;;;;;13.10;11.23;;;;;;;18.68;83.69;95080.88;5032509;28;20120;-80
2023/06/15 01:11:36;;;;;;;15.60;11.82;;;;;;;18.62;83.44;95072.19;5032607;28;20071;-80
2023/06/15 01:14:04;;;;;;;17.52;11.77;;;;;;;18.70;83.46;95076.72;5050232;28;20033;-80
2023/06/15 01:16:52;;;;;;;16.77;11.60;;;;;;;18.57;83.48;95061.66;5032423;28;20411;-80
2023/06/15 01:19:53;;;;;;;17.98;12.05;;;;;;;18.73;83.83;95076.09;5050010;28;20037;-80
2023/06/15 01:22:34;;;;;;;17.63;12.80;;;;;;;18.57;83.99;95050.91;5019322;28;20090;-80
2023/06/15 01:25:12;;;;;;;18.58;11.98;;;;;;;18.49;83.68;95047.16;5050366;28;20029;-80
2023/06/15 01:27:41;;;;;;;15.80;11.68;;;;;;;18.70;84.20;95070.56;5033330;28;20125;-80
2023/06/15 01:30:09;;;;;;;19.08;11.80;;;;;;;18.70;84.36;95063.28;5001601;28;20512;-80
2023/06/15 01:32:35;;;;;;;17.55;11.95;;;;;;;18.72;84.63;95063.75;5046111;28;20067;-80
2023/06/15 01:35:01;;;;;;;18.70;11.70;;;;;;;18.73;84.47;95057.28;5015828;28;20499;-80
2023/06/15 01:37:26;;;;;;;12.35;10.45;;;;;;;18.29;83.78;94985.38;5049650;28;20099;-80
2023/06/15 01:39:52;;;;;;;18.23;12.95;;;;;;;18.19;83.71;94967.75;5050098;28;20037;-80
2023/06/15 01:42:19;;;;;;;17.55;12.45;;;;;;;18.72;83.92;95057.59;5031717;28;20033;-80
2023/06/15 01:44:47;;;;;;;17.30;12.80;;;;;;;18.71;83.75;95054.13;5050690;28;20447;-80
2023/06/15 01:47:12;;;;;;;18.33;12.65;;;;;;;18.70;83.42;95059.81;5052597;28;20059;-80
2023/06/15 01:49:40;;;;;;;16.63;11.45;;;;;;;18.57;83.42;95042.84;5054974;28;20041;-78
2023/06/15 01:52:06;;;;;;;16.35;12.15;;;;;;;18.57;83.38;95044.75;5033063;28;20072;-79
2023/06/15 01:54:31;;;;;;;16.23;12.18;;;;;;;18.29;83.66;95004.16;5025931;28;20029;-79
2023/06/15 01:56:57;;;;;;;16.58;12.00;;;;;;;18.54;83.39;95050.75;5037682;28;20048;-79
2023/06/15 01:59:22;;;;;;;15.20;11.35;;;;;;;18.31;83.34;95010.00;5055837;28;20086;-79
2023/06/15 02:01:48;;;;;;;18.27;11.43;;;;;;;18.63;83.68;95059.56;5056250;28;20052;-80
2023/06/15 02:04:13;;;;;;;16.85;12.32;;;;;;;18.30;83.89;95006.53;5056076;28;20037;-79
2023/06/15 02:06:38;;;;;;;20.95;12.75;;;;;;;18.61;83.69;95053.75;5037650;28;20076;-79
2023/06/15 02:09:04;;;;;;;15.18;11.60;;;;;;;18.17;83.86;94983.38;5037411;28;20192;-79
2023/06/15 02:11:30;;;;;;;18.90;13.18;;;;;;;18.46;83.91;95028.22;5022813;28;20040;-79
2023/06/15 02:13:59;;;;;;;16.15;12.15;;;;;;;18.38;84.35;95013.75;5052020;28;20029;-79
2023/06/15 02:16:24;;;;;;;16.17;12.63;;;;;;;18.42;84.82;95020.03;5037399;28;20029;-79
2023/06/15 02:18:51;;;;;;;17.92;12.18;;;;;;;18.63;85.31;95043.44;5037248;28;20036;-79
2023/06/15 02:21:16;;;;;;;17.10;12.88;;;;;;;18.46;84.88;95020.94;5037379;28;20028;-79
2023/06/15 02:23:41;;;;;;;21.92;13.02;;;;;;;18.33;84.51;95005.88;5052492;28;20044;-79
2023/06/15 02:26:07;;;;;;;16.90;12.55;;;;;;;18.52;84.11;95037.66;5022785;28;20107;-79
2023/06/15 02:28:33;;;;;;;17.58;12.43;;;;;;;18.61;84.43;95041.09;5037451;28;20060;-80
2023/06/15 02:30:58;;;;;;;21.60;13.05;;;;;;;18.37;84.30;95003.34;5055858;28;20064;-79
2023/06/15 02:33:25;;;;;;;19.00;13.13;;;;;;;18.63;84.33;95044.22;5038233;28;20033;-80
2023/06/15 02:35:51;;;;;;;19.48;13.00;;;;;;;18.02;84.80;94946.38;5055079;28;20033;-80
2023/06/15 02:38:16;;;;;;;18.13;12.88;;;;;;;18.56;85.07;95027.03;5055436;28;20033;-80
2023/06/15 02:40:42;;;;;;;16.98;12.77;;;;;;;18.57;84.89;95028.63;5037228;28;20037;-79
2023/06/15 02:43:07;;;;;;;21.67;13.35;;;;;;;18.24;84.60;94974.81;5037722;28;20079;-80
2023/06/15 02:45:32;;;;;;;18.15;13.85;;;;;;;18.49;84.50;95020.28;5023515;28;20045;-79
2023/06/15 02:47:59;;;;;;;19.63;12.77;;;;;;;18.20;85.15;94971.22;5033153;28;20102;-80
2023/06/15 02:50:25;;;;;;;18.48;13.02;;;;;;;18.51;85.26;95014.59;5055216;28;20572;-79
2023/06/15 02:52:53;;;;;;;18.63;12.82;;;;;;;18.72;85.72;95036.13;5037530;28;20036;-79
2023/06/15 02:55:18;;;;;;;17.00;14.02;;;;;;;18.17;85.67;94948.50;5054811;28;20041;-79
2023/06/15 02:57:43;;;;;;;18.55;12.95;;;;;;;18.21;85.67;94968.22;5034331;28;20036;-79
2023/06/15 03:00:13;;;;;;;20.80;14.15;;;;;;;18.28;85.53;94965.00;5038105;28;20029;-79
2023/06/15 03:02:41;;;;;;;17.58;13.73;;;;;;;18.79;85.34;95041.75;5055294;28;20033;-79
2023/06/15 03:05:08;;;;;;;21.90;15.35;;;;;;;18.37;85.79;94979.97;5037029;28;20086;-79
2023/06/15 03:07:33;;;;;;;19.33;15.20;;;;;;;18.61;85.71;95008.09;5055163;28;20147;-79
2023/06/15 03:09:59;;;;;;;22.98;15.90;;;;;;;18.42;85.71;94987.81;5037337;28;20122;-79
2023/06/15 03:12:24;;;;;;;20.92;14.35;;;;;;;18.72;85.46;95030.75;5037410;28;20114;-79
2023/06/15 03:14:53;;;;;;;21.08;14.40;;;;;;;18.84;85.45;95041.56;5037152;28;20021;-79
2023/06/15 03:17:21;;;;;;;19.48;15.38;;;;;;;18.43;85.57;94988.59;5036817;28;20043;-79
2023/06/15 03:19:47;;;;;;;20.55;15.88;;;;;;;18.62;85.74;95004.25;5055064;28;20487;-79
2023/06/15 03:22:16;;;;;;;20.35;15.15;;;;;;;18.92;85.27;95045.28;5037097;28;20029;-79
2023/06/15 03:24:43;;;;;;;23.88;16.25;;;;;;;18.71;84.99;95013.84;5036727;28;20029;-79
2023/06/15 03:27:13;;;;;;;20.55;15.73;;;;;;;18.73;85.17;95011.63;5054562;28;20029;-79
2023/06/15 03:29:39;;;;;;;22.00;15.73;;;;;;;18.73;85.26;95008.94;5036558;28;20107;-79
2023/06/15 03:32:08;;;;;;;24.30;16.13;;;;;;;18.88;85.20;95031.72;5036276;28;20054;-79
2023/06/15 03:34:37;;;;;;;22.08;15.25;;;;;;;18.54;85.13;94964.84;5036770;28;20024;-79
2023/06/15 03:37:04;;;;;;;22.38;16.15;;;;;;;18.92;85.13;95023.81;5053944;28;20027;-79
2023/06/15 03:39:30;;;;;;;23.42;17.10;;;;;;;18.99;84.61;95037.50;5053683;28;20028;-79
2023/06/15 03:41:55;;;;;;;19.63;15.32;;;;;;;19.00;84.63;95033.66;5045111;28;20018;-79
2023/06/15 03:44:21;;;;;;;24.20;16.77;;;;;;;19.00;84.58;95028.28;5034660;28;20025;-79
2023/06/15 03:46:47;;;;;;;23.65;16.38;;;;;;;18.73;84.31;94997.38;5045785;28;20028;-79
2023/06/15 03:49:13;;;;;;;21.55;16.20;;;;;;;18.66;83.95;94992.56;5053884;28;20036;-79
2023/06/15 03:51:39;;;;;;;21.35;16.05;;;;;;;18.57;83.88;94980.31;5054628;28;20024;-79
2023/06/15 03:54:05;;;;;;;24.73;16.27;;;;;;;18.39;83.58;94944.69;5054091;28;20025;-79
2023/06/15 03:56:31;;;;;;;22.02;15.68;;;;;;;18.74;83.55;94998.97;5035775;28;20045;-79
2023/06/15 03:58:57;;;;;;;24.80;16.65;;;;;;;18.50;83.86;94970.06;5054321;28;20330;-79
2023/06/15 04:01:24;;;;;;;21.05;15.43;;;;;;;18.70;83.92;95008.78;5036160;28;20106;-79
2023/06/15 04:03:50;;;;;;;26.33;15.68;;;;;;;18.88;84.51;95035.19;5035889;28;20021;-79
2023/06/15 04:06:16;;;;;;;20.88;16.55;;;;;;;18.78;84.80;95024.03;5032703;28;20094;-79
2023/06/15 04:08:42;;;;;;;25.13;14.95;;;;;;;18.82;84.68;95022.28;5038192;28;20057;-79
2023/06/15 04:11:07;;;;;;;25.73;17.27;;;;;;;18.73;84.73;95003.56;5035306;28;20033;-79
2023/06/15 04:13:33;;;;;;;24.30;16.67;;;;;;;18.84;84.84;95009.31;5053377;28;20037;-78
2023/06/15 04:15:58;;;;;;;24.63;15.55;;;;;;;18.91;84.62;95022.22;5031812;28;20047;-79
2023/06/15 04:18:24;;;;;;;23.23;14.35;;;;;;;19.01;84.70;95029.84;5032525;28;20040;-79
2023/06/15 04:20:49;;;;;;;19.27;14.15;;;;;;;19.16;84.45;95051.53;5052747;28;20123;-79
2023/06/15 04:23:15;;;;;;;22.05;14.93;;;;;;;18.87;84.39;95003.28;5051888;28;20547;-79
2023/06/15 04:25:41;;;;;;;19.48;15.10;;;;;;;19.23;84.67;95054.47;5034690;28;20041;-79
2023/06/15 04:28:10;;;;;;;21.00;15.65;;;;;;;18.79;84.53;94970.00;5053647;28;20423;-79
2023/06/15 04:30:44;;;;;;;24.52;15.18;;;;;;;19.20;84.68;95024.78;5054759;28;20040;-79
2023/06/15 04:33:15;;;;;;;18.42;14.48;;;;;;;19.40;84.27;95052.75;5051791;28;20040;-79
2023/06/15 04:35:45;;;;;;;18.48;13.35;;;;;;;19.46;84.46;95046.81;5052777;28;20084;-79
2023/06/15 04:38:12;;;;;;;22.45;13.98;;;;;;;19.18;84.35;95000.13;5039114;28;20039;-79
2023/06/15 04:40:39;;;;;;;23.30;13.27;;;;;;;19.58;84.22;95049.59;5034736;28;20032;-79
2023/06/15 04:43:04;;;;;;;17.63;11.85;;;;;;;19.48;83.87;95030.38;5036120;28;20029;-79
2023/06/15 04:45:31;;;;;;;18.02;12.50;;;;;;;19.69;83.67;95054.50;5037313;28;20414;-79
2023/06/15 04:47:58;;;;;;;23.85;13.45;;;;;;;19.59;83.18;95026.16;5033477;28;20083;-79
2023/06/15 04:50:23;;;;;;;22.77;12.30;;;;;;;19.53;83.12;95019.44;5033039;28;20404;-80
2023/06/15 04:52:49;;;;;;;22.58;12.15;;;;;;;19.73;82.85;95044.66;5045489;28;20040;-79
2023/06/15 04:55:14;;;;;;;16.67;11.50;;;;;;;19.65;82.74;95028.28;5031695;28;20033;-79
2023/06/15 04:57:40;;;;;;;17.33;12.13;;;;;;;19.56;82.05;95016.06;5049703;28;20407;-80
2023/06/15 05:00:07;;;;;;;19.67;11.48;;;;;;;19.49;81.97;95010.44;5044155;28;20040;-79
2023/06/15 05:02:33;;;;;;;20.08;11.82;;;;;;;19.75;81.64;95040.53;5024459;28;20047;-80
2023/06/15 05:04:58;;;;;;;20.30;11.48;;;;;;;19.77;81.88;95037.50;5016132;28;20038;-79
2023/06/15 05:07:24;;;;;;;19.77;10.70;;;;;;;19.80;81.93;95043.00;5033471;28;20056;-79
2023/06/15 05:09:49;;;;;;;13.52;10.45;;;;;;;19.82;81.78;95045.38;5037747;28;20036;-80
2023/06/15 05:12:15;;;;;;;13.77;9.38;;;;;;;19.38;81.52;94988.53;5024021;28;20040;-80
2023/06/15 05:14:40;;;;;;;13.40;9.15;;;;;;;19.68;81.48;95031.44;5032633;28;20033;-80
2023/06/15 05:17:06;;;;;;;19.85;10.43;;;;;;;19.72;81.54;95030.44;5036682;28;20487;-80
2023/06/15 05:19:32;;;;;;;16.35;10.48;;;;;;;19.86;81.45;95049.72;5022287;28;20039;-81
2023/06/15 05:22:02;;;;;;;20.33;10.57;;;;;;;19.71;81.49;95031.53;5038529;28;20894;-80
2023/06/15 05:24:27;;;;;;;18.83;10.30;;;;;;;19.89;81.36;95056.34;5037980;28;20044;-80
2023/06/15 05:26:53;;;;;;;14.98;9.85;;;;;;;19.55;80.97;95001.03;5041881;28;20040;-80
2023/06/15 05:29:20;;;;;;;24.30;11.23;;;;;;;19.58;80.91;95013.81;5037870;28;20125;-80
2023/06/15 05:31:46;;;;;;;22.40;10.70;;;;;;;19.52;80.73;95002.50;5030811;28;20863;-80
2023/06/15 05:34:12;;;;;;;15.45;9.32;;;;;;;19.37;80.84;94975.44;5025880;28;20029;-82
2023/06/15 05:36:37;;;;;;;16.17;10.73;;;;;;;18.95;80.44;94899.50;5022577;28;20047;-79
2023/06/15 05:39:03;;;;;;;14.82;10.30;;;;;;;19.77;80.39;95026.72;5020847;28;20037;-81
2023/06/15 05:41:29;;;;;;;15.75;10.05;;;;;;;20.13;80.50;95075.22;5041116;28;20437;-80
2023/06/15 05:43:54;;;;;;;14.15;10.45;;;;;;;20.10;80.96;95067.03;5033166;28;20044;-80
2023/06/15 05:46:20;;;;;;;18.35;9.93;;;;;;;20.19;80.85;95065.78;5029402;28;20035;-79
2023/06/15 05:48:45;;;;;;;17.33;10.73;;;;;;;20.05;80.75;95046.50;5019979;28;20121;-80
2023/06/15 05:51:11;;;;;;;15.45;10.45;;;;;;;20.25;80.73;95063.66;5028699;28;20033;-87
2023/06/15 05:53:39;;;;;;;12.55;10.20;;;;;;;19.83;80.37;94993.91;5026961;28;20151;-91
2023/06/15 05:56:05;;;;;;;22.58;11.20;;;;;;;20.17;80.66;95040.31;5035758;28;20037;-88
2023/06/15 05:58:31;;;;;;;13.27;10.38;;;;;;;19.81;80.62;94985.38;5040617;28;20045;-84
2023/06/15 06:00:57;;;;;;;13.43;10.40;;;;;;;20.20;80.59;95023.50;5036067;28;20048;-84
2023/06/15 06:03:23;;;;;;;24.40;10.82;;;;;;;20.50;80.12;95059.88;5017648;28;20039;-85
2023/06/15 06:05:48;;;;;;;14.30;10.55;;;;;;;20.22;79.26;95003.16;5024757;28;20048;-82
2023/06/15 06:08:14;;;;;;;21.00;12.15;;;;;;;20.42;79.23;95029.22;5023042;28;20057;-83
2023/06/15 06:10:40;;;;;;;20.73;11.60;;;;;;;20.57;79.75;95035.03;5008016;28;20516;-83
2023/06/15 06:13:05;;;;;;;16.63;10.95;;;;;;;20.78;79.68;95074.19;5010716;28;20056;-83
2023/06/15 06:15:31;;;;;;;18.25;11.05;;;;;;;20.34;78.93;95007.81;5004414;28;20045;-85
2023/06/15 06:17:56;;;;;;;27.52;11.90;;;;;;;20.01;79.32;94936.00;5013233;28;20067;-84
2023/06/15 06:20:22;;;;;;;20.30;11.57;;;;;;;20.61;79.25;95009.75;5008187;28;20052;-86
2023/06/15 06:22:47;;;;;;;19.35;10.88;;;;;;;20.20;78.28;94938.13;5013254;28;20045;-82
2023/06/15 06:25:12;;;;;;;17.67;11.88;;;;;;;20.89;78.41;95033.28;5014464;28;20036;-85
2023/06/15 06:27:38;;;;;;;20.90;11.98;;;;;;;21.13;78.35;95062.88;5008898;28;20059;-85
2023/06/15 06:30:04;;;;;;;15.02;10.55;;;;;;;20.68;78.39;94984.94;5014710;28;20041;-86
2023/06/15 06:32:30;;;;;;;17.17;11.43;;;;;;;20.98;78.20;95015.06;5029126;28;20342;-83
2023/06/15 06:34:55;;;;;;;21.63;11.60;;;;;;;21.09;77.87;95037.69;5007221;28;20113;-81
2023/06/15 06:37:22;;;;;;;25.65;11.82;;;;;;;20.94;77.62;95003.38;5015214;28;20344;-81
2023/06/15 06:39:47;;;;;;;24.17;11.77;;;;;;;21.17;77.47;95026.00;5011167;28;20029;-85
2023/06/15 06:42:13;;;;;;;21.10;11.48;;;;;;;21.38;77.23;95036.59;5013600;28;22188;-83
2023/06/15 06:44:38;;;;;;;16.60;12.13;;;;;;;21.81;76.85;95089.78;5012011;28;20034;-82
2023/06/15 06:47:04;;;;;;;18.10;11.60;;;;;;;21.45;75.96;95020.56;5014651;28;20053;-80
2023/06/15 06:49:29;;;;;;;17.25;10.73;;;;;;;21.45;75.77;95015.19;5018815;28;20074;-85
2023/06/15 06:51:55;;;;;;;19.30;11.68;;;;;;;21.99;75.93;95088.31;5023527;28;20029;-85
2023/06/15 06:54:21;;;;;;;14.43;11.75;;;;;;;22.04;75.64;95087.28;5015816;28;20577;-82
2023/06/15 06:56:47;;;;;;;22.92;11.80;;;;;;;21.62;75.79;95020.25;5017836;28;20080;-81
2023/06/15 06:59:13;;;;;;;16.88;11.65;;;;;;;22.05;75.21;95083.47;5010662;28;20033;-81
2023/06/15 07:01:38;;;;;;;17.95;12.45;;;;;;;22.18;75.13;95088.44;5010768;28;20048;-82
2023/06/15 07:04:05;;;;;;;20.25;11.88;;;;;;;21.79;75.39;95030.72;5010024;28;20577;-84
2023/06/15 07:06:30;;;;;;;14.15;11.55;;;;;;;22.18;74.88;95074.13;5014756;28;20205;-81
2023/06/15 07:08:55;;;;;;;16.23;11.60;;;;;;;22.13;74.88;95055.47;5017219;28;20071;-80
2023/06/15 07:11:21;;;;;;;21.10;12.00;;;;;;;22.07;74.28;95044.16;5025910;28;20037;-80
2023/06/15 07:13:46;;;;;;;17.67;11.65;;;;;;;22.27;73.86;95063.94;5035021;28;20033;-81
2023/06/15 07:16:12;;;;;;;16.80;10.68;;;;;;;22.51;74.15;95081.84;5016015;28;20505;-81
2023/06/15 07:18:46;;;;;;;23.88;11.15;;;;;;;21.79;73.41;94967.84;5013966;28;20193;-81
2023/06/15 07:21:11;;;;;;;19.58;10.77;;;;;;;22.20;73.27;95024.00;5036477;28;20052;-81
2023/06/15 07:23:37;;;;;;;14.95;11.07;;;;;;;22.38;73.11;95053.38;5017646;28;20079;-81
2023/06/15 07:26:02;;;;;;;15.85;10.70;;;;;;;22.61;72.60;95087.50;5036316;28;20128;-81
2023/06/15 07:28:28;;;;;;;21.27;11.93;;;;;;;22.60;72.68;95080.53;5036418;28;20025;-81
2023/06/15 07:30:53;;;;;;;15.18;11.02;;;;;;;22.53;71.94;95074.19;5021243;28;20075;-81
2023/06/15 07:33:19;;;;;;;16.42;11.52;;;;;;;21.87;70.52;94972.28;5022024;28;20435;-80
2023/06/15 07:35:44;;;;;;;20.95;11.43;;;;;;;22.39;69.62;95039.50;5020202;28;20062;-80
2023/06/15 07:38:13;;;;;;;17.98;11.85;;;;;;;22.20;69.39;95013.22;5019940;28;20033;-80
2023/06/15 07:40:38;;;;;;;18.77;11.70;;;;;;;22.22;69.87;95019.06;5021188;28;20025;-80
2023/06/15 07:43:04;;;;;;;24.73;14.15;;;;;;;22.23;71.46;95031.44;5037158;28;20033;-80
2023/06/15 07:45:29;;;;;;;23.58;14.50;;;;;;;22.29;71.25;95024.63;5018217;28;20049;-82
2023/06/15 07:47:55;;;;;;;21.10;13.13;;;;;;;22.62;70.72;95091.00;5015934;28;20044;-81
2023/06/15 07:50:20;;;;;;;22.33;12.90;;;;;;;22.24;69.90;95024.13;5035853;28;20211;-81
2023/06/15 07:52:46;;;;;;;20.25;13.30;;;;;;;22.25;69.45;95025.69;5040044;28;20110;-81
2023/06/15 07:55:12;;;;;;;24.63;14.07;;;;;;;22.51;69.27;95052.91;5024905;28;20025;-81
2023/06/15 07:57:37;;;;;;;15.07;12.00;;;;;;;22.73;69.20;95085.84;5015028;28;20530;-80
2023/06/15 08:00:05;;;;;;;17.70;13.02;;;;;;;22.74;68.51;95085.50;5019056;28;20035;-80
2023/06/15 08:02:31;;;;;;;19.75;13.65;;;;;;;22.64;69.82;95065.19;5014924;28;20083;-78
2023/06/15 08:04:56;;;;;;;17.45;12.80;;;;;;;22.77;69.74;95079.38;5017802;28;20048;-79
2023/06/15 08:07:22;;;;;;;19.95;12.90;;;;;;;22.37;70.12;95016.66;5030276;28;20101;-79
2023/06/15 08:09:47;;;;;;;16.02;12.18;;;;;;;22.68;69.09;95062.53;5034859;28;20213;-80
2023/06/15 08:12:13;;;;;;;15.00;12.18;;;;;;;22.78;69.79;95080.19;5039599;28;20048;-80
2023/06/15 08:14:38;;;;;;;18.42;12.48;;;;;;;22.67;69.55;95072.56;5033619;28;20044;-80
2023/06/15 08:17:04;;;;;;;21.95;13.13;;;;;;;22.29;69.32;95032.72;5013387;28;20020;-80
2023/06/15 08:19:30;;;;;;;15.93;11.60;;;;;;;22.56;68.83;95068.09;5010594;28;20550;-80
2023/06/15 08:21:55;;;;;;;19.65;11.82;;;;;;;22.73;69.44;95078.50;5028253;28;20025;-81
2023/06/15 08:24:21;;;;;;;16.35;10.10;;;;;;;22.26;68.78;95019.16;5030877;28;20024;-80
2023/06/15 08:26:48;;;;;;;15.73;11.27;;;;;;;22.35;68.37;95016.25;5030158;28;20034;-80
2023/06/15 08:29:14;;;;;;;16.10;11.18;;;;;;;22.78;67.76;95077.47;5013248;28;20094;-80
2023/06/15 08:31:40;;;;;;;21.90;11.30;;;;;;;22.62;66.66;95040.41;5013886;28;20044;-80
2023/06/15 08:34:07;;;;;;;14.15;10.55;;;;;;;22.89;67.69;95067.66;5033930;28;20716;-80
2023/06/15 08:36:32;;;;;;;14.55;10.55;;;;;;;22.80;67.81;95054.38;5015866;28;20333;-79
2023/06/15 08:38:57;;;;;;;16.08;10.57;;;;;;;23.08;67.08;95076.59;5017007;28;20579;-80
2023/06/15 08:41:25;;;;;;;13.98;10.23;;;;;;;23.31;66.37;95090.19;5037073;28;20106;-80
2023/06/15 08:43:53;;;;;;;17.42;10.15;;;;;;;23.24;66.39;95059.50;5039255;28;20033;-80
2023/06/15 08:46:18;;;;;;;14.43;10.60;;;;;;;23.25;65.98;95059.16;5039243;28;20037;-80
2023/06/15 08:48:46;;;;;;;15.18;10.20;;;;;;;23.56;64.76;95087.22;5034751;28;20551;-80
2023/06/15 08:51:12;;;;;;;13.00;9.57;;;;;;;23.56;64.44;95076.41;5037961;28;20450;-80
2023/06/15 08:53:42;;;;;;;23.08;9.75;;;;;;;22.90;64.73;95021.34;5036775;28;20033;-80
2023/06/15 08:56:11;;;;;;;14.57;9.73;;;;;;;23.15;66.14;95072.44;5041322;28;20032;-81
2023/06/15 08:58:37;;;;;;;17.00;11.45;;;;;;;23.25;65.71;95086.22;5019239;28;20036;-82
2023/06/15 09:01:02;;;;;;;17.52;11.05;;;;;;;23.35;66.38;95103.78;5021767;28;20106;-83
2023/06/15 09:03:31;;;;;;;15.93;10.20;;;;;;;22.78;66.78;95035.00;5014128;28;20048;-82
2023/06/15 09:05:57;;;;;;;12.60;10.48;;;;;;;22.78;67.87;95075.56;5029740;28;20387;-82
2023/06/15 09:08:22;;;;;;;30.58;12.52;;;;;;;22.66;67.49;95065.59;5018326;28;20079;-81
2023/06/15 09:10:49;;;;;;;13.52;10.98;;;;;;;22.67;68.41;95074.50;5017570;28;20052;-82
2023/06/15 09:13:18;;;;;;;16.05;12.70;;;;;;;22.80;69.14;95100.31;5019891;28;20597;-82
2023/06/15 09:15:50;;;;;;;15.75;11.38;;;;;;;22.61;69.37;95098.31;5036127;28;20459;-84
2023/06/15 09:18:17;;;;;;;19.33;13.45;;;;;;;22.25;70.33;95058.09;5037833;28;20036;-85
2023/06/15 09:20:42;;;;;;;20.98;12.90;;;;;;;22.20;70.86;95055.69;5039183;28;20041;-81
2023/06/15 09:23:13;;;;;;;26.17;13.77;;;;;;;22.37;71.52;95097.72;5011986;28;20106;-81
2023/06/15 09:25:41;;;;;;;18.83;13.10;;;;;;;22.20;72.19;95107.00;5031643;28;20040;-81
2023/06/15 09:28:07;;;;;;;23.08;13.85;;;;;;;21.33;72.56;94990.97;5012405;28;20573;-81
2023/06/15 09:30:35;;;;;;;22.38;14.50;;;;;;;21.34;73.51;95023.00;5018387;28;20235;-81
2023/06/15 09:33:16;;;;;;;24.55;13.70;;;;;;;21.29;74.11;95101.47;5021036;28;20032;-81
2023/06/15 09:36:00;;;;;;;25.20;16.48;;;;;;;20.85;78.26;95111.34;5035489;28;20029;-81
2023/06/15 09:38:28;;;;;;;27.23;18.80;;;;;;;19.91;81.74;95052.19;5018866;28;20114;-81
2023/06/15 09:40:53;;;;;;;26.10;18.25;;;;;;;19.62;83.40;95044.31;5035614;28;20150;-81
2023/06/15 09:43:19;;;;;;;29.05;20.45;;;;;;;19.42;84.30;95055.88;5033512;28;20120;-80
2023/06/15 09:45:54;;;;;;;35.42;21.77;;;;;;;19.38;88.16;95120.28;5036429;28;20475;-79
2023/06/15 09:48:21;;;;;;;32.58;22.58;;;;;;;18.79;91.14;95111.59;5017931;28;20036;-80
2023/06/15 09:50:51;;;;;;;34.75;25.08;;;;;;;18.94;93.71;95113.69;5028328;28;20079;-80
2023/06/15 09:53:18;;;;;;;32.50;24.63;;;;;;;18.88;91.72;95107.75;5012362;28;20280;-80
2023/06/15 09:55:48;;;;;;;41.60;25.70;;;;;;;19.09;91.28;95123.06;5029433;28;20033;-80
2023/06/15 09:58:14;;;;;;;39.22;25.45;;;;;;;19.25;91.96;95119.47;5032991;28;20029;-79
2023/06/15 10:00:39;;;;;;;35.10;25.67;;;;;;;19.16;90.74;95126.81;5016954;28;20086;-78
2023/06/15 10:03:07;;;;;;;42.80;28.05;;;;;;;18.72;92.88;95057.59;5017974;28;20044;-78
2023/06/15 10:05:38;;;;;;;46.97;29.63;;;;;;;19.02;95.20;95080.59;5016525;28;20120;-79
2023/06/15 10:08:06;;;;;;;39.60;27.92;;;;;;;19.02;91.53;95112.06;5045241;28;21724;-78
2023/06/15 10:10:36;;;;;;;39.05;27.23;;;;;;;19.06;91.76;95111.09;5023962;28;20145;-78
2023/06/15 10:13:03;;;;;;;39.70;28.60;;;;;;;19.08;92.13;95103.47;5016329;28;20028;-78
2023/06/15 10:15:31;;;;;;;41.83;30.15;;;;;;;19.05;93.92;95079.94;5046616;28;20025;-78
2023/06/15 10:18:01;;;;;;;41.75;28.25;;;;;;;19.19;93.52;95131.53;5044177;28;20051;-78
2023/06/15 10:20:28;;;;;;;44.60;29.13;;;;;;;19.21;93.58;95132.00;5053575;28;20539;-79
2023/06/15 10:23:03;;;;;;;43.25;30.77;;;;;;;19.11;94.26;95131.59;5037095;28;20828;-79
2023/06/15 10:25:30;;;;;;;43.35;31.15;;;;;;;17.60;94.91;94988.41;5033116;28;20056;-79
2023/06/15 10:27:56;;;;;;;47.58;30.30;;;;;;;18.42;96.92;95111.31;5046628;28;20047;-79
2023/06/15 10:30:59;;;;;;;48.75;31.10;;;;;;;18.80;96.55;95122.03;5046272;28;20461;-79
2023/06/15 10:33:37;;;;;;;55.53;35.05;;;;;;;18.98;98.37;95119.22;5043003;28;20041;-79
2023/06/15 10:36:07;;;;;;;53.03;33.45;;;;;;;18.89;97.44;95095.09;5035285;28;20194;-79
2023/06/15 10:38:50;;;;;;;47.83;30.98;;;;;;;19.23;96.84;95128.97;5035679;28;20496;-79
2023/06/15 10:41:17;;;;;;;34.95;24.50;;;;;;;19.30;94.54;95129.22;5020342;28;20028;-79
2023/06/15 10:43:59;;;;;;;35.72;25.63;;;;;;;19.16;92.88;95093.75;5029653;28;20521;-79
2023/06/15 10:46:29;;;;;;;40.33;28.45;;;;;;;19.44;93.04;95120.91;5028701;28;20150;-79
2023/06/15 10:49:01;;;;;;;41.55;27.80;;;;;;;19.47;93.03;95123.72;5032703;28;20043;-79
2023/06/15 10:51:29;;;;;;;38.72;26.30;;;;;;;18.99;92.59;95049.03;5032613;28;20053;-79
2023/06/15 10:53:55;;;;;;;37.08;26.00;;;;;;;19.13;91.42;95072.94;5027607;28;20021;-79
2023/06/15 10:56:21;;;;;;;47.70;27.98;;;;;;;19.36;91.63;95095.66;5032867;28;20037;-79
2023/06/15 10:58:59;;;;;;;44.47;30.75;;;;;;;19.06;93.50;95043.91;5034316;28;20432;-80
2023/06/15 11:01:30;;;;;;;42.67;28.63;;;;;;;19.11;92.40;95041.00;5034345;28;20220;-79
2023/06/15 11:03:59;;;;;;;42.17;27.70;;;;;;;19.58;92.91;95110.66;5047227;28;20033;-79
2023/06/15 11:06:37;;;;;;;39.35;28.65;;;;;;;19.41;93.41;95057.78;5050388;28;20304;-79
2023/06/15 11:09:18;;;;;;;46.15;28.60;;;;;;;19.62;93.82;95066.63;5040968;28;20040;-79
2023/06/15 11:11:44;;;;;;;46.10;29.20;;;;;;;19.96;93.44;95088.88;5054935;28;20103;-79
2023/06/15 11:14:18;;;;;;;43.50;29.05;;;;;;;20.11;93.67;95093.63;5032889;28;20064;-79
2023/06/15 11:16:44;;;;;;;40.17;28.17;;;;;;;20.16;93.57;95079.13;5048820;28;20033;-80